Time;durP1;ratioP1;P1;durP2;ratioP2;P2;SDS_P1;SDS_P2;PMS_P1;PMS_P2;Temp;Humidity;BMP_temperature;BMP_pressure;BME280_temperature;BME280_humidity;BME280_pressure;Samples;Min_cycle;Max_cycle;Signal;HPM_P1;HPM_P2
2022/06/30 00:02:57;;;;;;;;;;;;;;;24.04;53.44;95400.53;10463075;28;1932;-60
2022/06/30 00:07:58;;;;;;;;;;;;;;;24.05;53.27;95391.53;10471153;28;1791;-58
2022/06/30 00:12:58;;;;;;;;;;;;;;;24.02;53.33;95384.94;10486285;28;1950;-58
2022/06/30 00:17:58;;;;;;;;;;;;;;;24.03;53.35;95380.38;10489405;28;1967;-60
2022/06/30 00:22:59;;;;;;;;;;;;;;;24.02;53.21;95376.19;10461521;28;1860;-59
2022/06/30 00:27:59;;;;;;;;;;;;;;;24.02;53.32;95369.03;10458467;28;1915;-58
2022/06/30 00:33:00;;;;;;;;;;;;;;;24.02;53.25;95373.56;10473491;28;1914;-58
2022/06/30 00:38:04;;;;;;;;;;;;;;;24.02;53.39;95371.69;10480369;28;1914;-61
2022/06/30 00:43:04;;;;;;;;;;;;;;;24.00;53.08;95371.22;10487141;28;1800;-60
2022/06/30 00:48:05;;;;;;;;;;;;;;;24.01;53.26;95369.31;10453656;28;2132;-60
2022/06/30 00:53:06;;;;;;;;;;;;;;;24.02;53.10;95360.31;10457218;28;1924;-60
2022/06/30 00:58:06;;;;;;;;;;;;;;;24.03;53.10;95359.22;10487027;28;1927;-57
2022/06/30 01:03:07;;;;;;;;;;;;;;;24.02;53.23;95353.16;10456060;28;2122;-59
2022/06/30 01:08:07;;;;;;;;;;;;;;;24.01;53.18;95364.03;10443714;28;1952;-60
2022/06/30 01:13:08;;;;;;;;;;;;;;;24.03;53.10;95364.50;10440826;28;1908;-60
2022/06/30 01:18:14;;;;;;;;;;;;;;;24.01;53.04;95359.53;10469281;28;1978;-59
2022/06/30 01:23:23;;;;;;;;;;;;;;;24.00;53.05;95350.03;10480622;28;1889;-60
2022/06/30 01:28:24;;;;;;;;;;;;;;;24.00;53.18;95355.31;10488497;28;2251;-59
2022/06/30 01:33:35;;;;;;;;;;;;;;;24.00;52.88;95350.03;10485722;28;1843;-60
2022/06/30 01:38:39;;;;;;;;;;;;;;;23.99;52.54;95352.97;10457168;28;2057;-57
2022/06/30 01:43:39;;;;;;;;;;;;;;;23.96;53.09;95346.44;10481914;28;2214;-59
2022/06/30 01:48:39;;;;;;;;;;;;;;;23.94;53.06;95345.97;10465057;28;1892;-60
2022/06/30 01:53:39;;;;;;;;;;;;;;;23.95;53.23;95349.34;10474585;28;1894;-60
2022/06/30 01:58:40;;;;;;;;;;;;;;;23.94;53.07;95353.91;10470982;28;1980;-60
2022/06/30 02:03:40;;;;;;;;;;;;;;;23.94;53.20;95361.84;10468153;28;1907;-57
2022/06/30 02:08:41;;;;;;;;;;;;;;;23.94;53.18;95369.00;10471885;28;2031;-57
2022/06/30 02:13:42;;;;;;;;;;;;;;;23.92;53.03;95371.94;10463419;28;1922;-59
2022/06/30 02:18:42;;;;;;;;;;;;;;;23.91;52.83;95378.31;10470455;28;1983;-56
2022/06/30 02:23:42;;;;;;;;;;;;;;;23.92;52.90;95371.16;10464584;28;1896;-57
2022/06/30 02:28:44;;;;;;;;;;;;;;;23.94;52.82;95377.72;10482964;28;1839;-60
2022/06/30 02:33:44;;;;;;;;;;;;;;;23.91;52.71;95383.59;10475781;28;1995;-59
2022/06/30 02:38:45;;;;;;;;;;;;;;;23.90;52.73;95379.41;10483258;28;1902;-59
2022/06/30 02:43:48;;;;;;;;;;;;;;;23.90;52.82;95386.56;10479916;28;1820;-59
2022/06/30 02:48:48;;;;;;;;;;;;;;;23.88;52.71;95373.66;10481498;28;1794;-58
2022/06/30 02:53:48;;;;;;;;;;;;;;;23.87;52.61;95384.50;10458728;28;1882;-57
2022/06/30 02:58:50;;;;;;;;;;;;;;;23.86;52.87;95385.63;10470603;28;1914;-59
2022/06/30 03:03:50;;;;;;;;;;;;;;;23.86;52.78;95391.69;10451444;28;1803;-57
2022/06/30 03:08:51;;;;;;;;;;;;;;;23.86;52.66;95388.25;10469429;28;1828;-60
2022/06/30 03:13:51;;;;;;;;;;;;;;;23.83;52.31;95381.69;10470361;28;1823;-59
2022/06/30 03:18:52;;;;;;;;;;;;;;;23.83;52.65;95381.69;10474807;28;1975;-57
2022/06/30 03:23:52;;;;;;;;;;;;;;;23.83;52.60;95381.69;10459137;28;1847;-58
2022/06/30 03:28:52;;;;;;;;;;;;;;;23.83;52.29;95381.69;10478804;28;1817;-59
2022/06/30 03:33:53;;;;;;;;;;;;;;;23.83;52.39;95381.69;10491455;28;1835;-58
2022/06/30 03:38:53;;;;;;;;;;;;;;;23.83;52.52;95380.91;10465984;28;1970;-58
2022/06/30 03:43:53;;;;;;;;;;;;;;;23.84;52.51;95385.13;10490024;28;1836;-59
2022/06/30 03:48:54;;;;;;;;;;;;;;;23.84;52.41;95393.06;10482212;28;1839;-59
2022/06/30 03:53:56;;;;;;;;;;;;;;;23.83;52.58;95391.50;10466375;28;1862;-58
2022/06/30 03:58:56;;;;;;;;;;;;;;;23.85;52.54;95398.06;10493420;28;1898;-58
2022/06/30 04:03:56;;;;;;;;;;;;;;;23.87;52.63;95398.53;10460203;28;1964;-59
2022/06/30 04:08:57;;;;;;;;;;;;;;;23.93;52.78;95399.19;10461970;28;1816;-57
2022/06/30 04:13:57;;;;;;;;;;;;;;;23.94;52.68;95396.25;10474865;28;1895;-58
2022/06/30 04:18:57;;;;;;;;;;;;;;;23.91;52.45;95399.50;10458468;28;2006;-58
2022/06/30 04:23:58;;;;;;;;;;;;;;;23.87;52.69;95400.41;10464810;28;1876;-57
2022/06/30 04:28:59;;;;;;;;;;;;;;;23.80;52.62;95400.06;10450231;28;1886;-59
2022/06/30 04:33:59;;;;;;;;;;;;;;;23.76;52.62;95397.22;10459748;28;2072;-60
2022/06/30 04:38:59;;;;;;;;;;;;;;;23.76;52.85;95391.91;10462305;28;1934;-60
2022/06/30 04:43:59;;;;;;;;;;;;;;;23.78;52.82;95405.63;10497022;28;1762;-58
2022/06/30 04:49:00;;;;;;;;;;;;;;;23.78;52.69;95402.22;10476142;28;1881;-56
2022/06/30 04:54:00;;;;;;;;;;;;;;;23.77;52.64;95404.09;10480297;28;1800;-56
2022/06/30 04:59:00;;;;;;;;;;;;;;;23.77;52.70;95404.09;10461151;28;1922;-58
2022/06/30 05:04:01;;;;;;;;;;;;;;;23.76;52.63;95402.50;10487159;28;1873;-56
2022/06/30 05:09:01;;;;;;;;;;;;;;;23.77;52.76;95408.59;10477469;28;2048;-59
2022/06/30 05:14:02;;;;;;;;;;;;;;;23.78;52.69;95396.94;10475827;28;1776;-58
2022/06/30 05:19:03;;;;;;;;;;;;;;;23.79;52.51;95382.59;10469067;28;1913;-57
2022/06/30 05:29:22;;;;;;;;;;;;;;;23.83;52.48;95387.00;10479602;28;1801;-59
2022/06/30 05:34:23;;;;;;;;;;;;;;;23.83;52.45;95381.69;10475079;28;1973;-59
2022/06/30 05:39:25;;;;;;;;;;;;;;;23.86;52.53;95390.91;10489235;28;2083;-60
2022/06/30 05:44:25;;;;;;;;;;;;;;;23.86;52.30;95388.25;10455802;28;1752;-59
2022/06/30 05:49:26;;;;;;;;;;;;;;;23.85;52.16;95382.19;10477549;28;1788;-60
2022/06/30 05:54:27;;;;;;;;;;;;;;;23.88;52.22;95375.50;10445794;28;1971;-59
2022/06/30 05:59:27;;;;;;;;;;;;;;;23.90;52.06;95383.91;10452414;28;1857;-60
2022/06/30 06:04:28;;;;;;;;;;;;;;;23.90;52.24;95392.66;10451598;28;1845;-60
2022/06/30 06:09:29;;;;;;;;;;;;;;;23.90;52.17;95387.34;10490227;28;1832;-59
2022/06/30 06:14:29;;;;;;;;;;;;;;;23.86;52.16;95388.25;10456101;28;1910;-59
2022/06/30 06:19:30;;;;;;;;;;;;;;;23.88;52.42;95394.03;10449601;28;2549;-59
2022/06/30 06:24:30;;;;;;;;;;;;;;;23.88;52.49;95394.03;10450905;28;1796;-59
2022/06/30 06:29:31;;;;;;;;;;;;;;;23.88;52.28;95391.38;10471344;28;1920;-61
2022/06/30 06:34:31;;;;;;;;;;;;;;;23.85;52.53;95395.41;10472900;28;1961;-61
2022/06/30 06:39:32;;;;;;;;;;;;;;;23.88;52.62;95394.81;10477906;28;1819;-54
2022/06/30 06:44:32;;;;;;;;;;;;;;;23.90;52.56;95387.34;10463315;28;1823;-57
2022/06/30 06:49:32;;;;;;;;;;;;;;;23.93;52.16;95380.66;10479521;28;1828;-59
2022/06/30 06:54:33;;;;;;;;;;;;;;;23.93;52.24;95380.66;10483116;28;1906;-57
2022/06/30 06:59:34;;;;;;;;;;;;;;;23.91;52.18;95377.53;10479240;28;1829;-57
2022/06/30 07:04:35;;;;;;;;;;;;;;;23.89;52.37;95372.53;10478834;28;1859;-55
2022/06/30 07:09:36;;;;;;;;;;;;;;;23.91;52.40;95367.72;10499661;28;1774;-56
2022/06/30 07:14:36;;;;;;;;;;;;;;;23.95;52.17;95365.25;10473760;28;1954;-60
2022/06/30 07:19:36;;;;;;;;;;;;;;;24.00;52.55;95360.63;10458414;28;2311;-62
2022/06/30 07:24:37;;;;;;;;;;;;;;;24.04;52.59;95355.53;10481183;28;1779;-63
2022/06/30 07:29:37;;;;;;;;;;;;;;;24.06;52.36;95353.34;10461269;28;1922;-61
2022/06/30 07:34:37;;;;;;;;;;;;;;;24.08;52.51;95349.31;10478802;28;1975;-60
2022/06/30 07:39:38;;;;;;;;;;;;;;;24.12;52.28;95355.56;10488670;28;1800;-61
2022/06/30 07:44:38;;;;;;;;;;;;;;;24.17;52.23;95354.66;10494104;28;1776;-58
2022/06/30 07:49:40;;;;;;;;;;;;;;;24.17;52.07;95352.75;10486598;28;1788;-61
2022/06/30 07:54:40;;;;;;;;;;;;;;;24.17;52.27;95347.47;10478686;28;1987;-62
2022/06/30 07:59:41;;;;;;;;;;;;;;;24.18;52.28;95349.03;10465546;28;1973;-61
2022/06/30 08:04:41;;;;;;;;;;;;;;;24.19;52.32;95345.28;10477006;28;1888;-59
2022/06/30 08:09:41;;;;;;;;;;;;;;;24.24;52.10;95344.38;10471793;28;1663;-61
2022/06/30 08:14:42;;;;;;;;;;;;;;;24.27;52.07;95343.00;10473986;28;1902;-62
2022/06/30 08:19:42;;;;;;;;;;;;;;;24.27;52.04;95358.88;10473790;28;2779;-60
2022/06/30 08:24:42;;;;;;;;;;;;;;;24.28;52.07;95349.88;10471808;28;1946;-60
2022/06/30 08:29:43;;;;;;;;;;;;;;;24.28;51.94;95334.75;10473563;28;1844;-62
2022/06/30 08:34:43;;;;;;;;;;;;;;;24.28;52.03;95323.38;10470995;28;1971;-60
2022/06/30 08:45:17;;;;;;;;;;;;;;;24.29;52.05;95317.78;10471023;28;1875;-60
2022/06/30 08:50:18;;;;;;;;;;;;;;;24.31;52.17;95323.53;10454890;28;1911;-61
2022/06/30 08:55:26;;;;;;;;;;;;;;;24.33;52.03;95321.38;10438753;28;1914;-60
2022/06/30 09:00:26;;;;;;;;;;;;;;;24.28;51.78;95313.53;10458006;28;1805;-61
2022/06/30 09:05:27;;;;;;;;;;;;;;;24.31;51.97;95305.00;10457502;28;1867;-62
2022/06/30 09:10:30;;;;;;;;;;;;;;;24.34;51.86;95309.66;10467375;28;1857;-61
2022/06/30 09:15:31;;;;;;;;;;;;;;;24.37;52.06;95313.56;10455331;28;2130;-61
2022/06/30 09:20:33;;;;;;;;;;;;;;;24.36;51.81;95309.38;10481035;28;2002;-61
2022/06/30 09:25:34;;;;;;;;;;;;;;;24.36;52.20;95323.38;10499892;28;1819;-62
2022/06/30 09:30:35;;;;;;;;;;;;;;;24.41;51.94;95322.47;10468105;28;1790;-61
2022/06/30 09:35:41;;;;;;;;;;;;;;;24.41;51.82;95304.72;10548319;27;1816;-60
2022/06/30 09:41:01;;;;;;;;;;;;;;;24.40;52.06;95305.03;10538793;28;1878;-61
2022/06/30 09:46:01;;;;;;;;;;;;;;;24.41;52.14;95310.00;10538900;28;1848;-60
2022/06/30 09:51:02;;;;;;;;;;;;;;;24.42;52.11;95302.84;10536643;28;1910;-61
2022/06/30 09:56:13;;;;;;;;;;;;;;;24.45;52.22;95310.16;10535616;28;1831;-60
2022/06/30 10:01:13;;;;;;;;;;;;;;;24.47;52.09;95310.63;10532973;28;1871;-61
2022/06/30 10:06:17;;;;;;;;;;;;;;;24.48;52.14;95307.69;10526373;28;1791;-61
2022/06/30 10:11:17;;;;;;;;;;;;;;;24.49;52.07;95303.16;10515631;28;2328;-60
2022/06/30 10:16:17;;;;;;;;;;;;;;;24.49;52.19;95306.59;10528144;28;2245;-62
2022/06/30 10:21:22;;;;;;;;;;;;;;;24.49;51.93;95305.81;10531279;28;1807;-61
2022/06/30 10:31:43;;;;;;;;;;;;;;;24.55;51.88;95283.38;10530602;28;1981;-61
2022/06/30 10:36:45;;;;;;;;;;;;;;;24.54;52.00;95269.38;10536562;28;1812;-56
2022/06/30 10:41:47;;;;;;;;;;;;;;;24.58;52.17;95280.13;10533332;28;1847;-56
2022/06/30 10:46:47;;;;;;;;;;;;;;;24.54;52.24;95273.88;10505967;28;1828;-56
2022/06/30 10:51:48;;;;;;;;;;;;;;;24.58;51.99;95258.91;10501632;28;1941;-58
2022/06/30 10:56:48;;;;;;;;;;;;;;;24.58;51.75;95262.34;10504478;28;1855;-58
2022/06/30 11:02:08;;;;;;;;;;;;;;;24.59;51.71;95261.25;10507906;28;1811;-58
2022/06/30 11:07:12;;;;;;;;;;;;;;;24.60;51.54;95262.81;10508057;28;1840;-57
2022/06/30 11:12:20;;;;;;;;;;;;;;;24.59;51.64;95255.16;10506168;28;1906;-60
2022/06/30 11:17:24;;;;;;;;;;;;;;;24.58;51.38;95249.09;10504490;28;2296;-58
2022/06/30 11:22:24;;;;;;;;;;;;;;;24.60;51.46;95246.13;10494274;28;1909;-57
2022/06/30 11:27:25;;;;;;;;;;;;;;;24.60;51.49;95244.28;10500179;28;1839;-59
2022/06/30 11:32:26;;;;;;;;;;;;;;;24.60;51.69;95235.53;10495238;28;2137;-60
2022/06/30 11:37:27;;;;;;;;;;;;;;;24.64;51.62;95244.44;10496278;28;1871;-59
2022/06/30 11:42:28;;;;;;;;;;;;;;;24.65;51.97;95230.06;10500162;28;1872;-60
2022/06/30 11:47:29;;;;;;;;;;;;;;;24.67;51.97;95230.53;10496858;28;1787;-57
2022/06/30 11:52:29;;;;;;;;;;;;;;;24.68;51.86;95227.59;10501418;28;1914;-60
2022/06/30 11:57:30;;;;;;;;;;;;;;;24.68;51.58;95216.22;10504361;28;1769;-62
2022/06/30 12:02:30;;;;;;;;;;;;;;;24.67;52.04;95223.38;10499257;28;1912;-60
2022/06/30 12:07:31;;;;;;;;;;;;;;;24.66;52.16;95211.22;10507692;28;1886;-60
2022/06/30 12:12:32;;;;;;;;;;;;;;;24.70;52.18;95214.03;10495038;28;1979;-61
2022/06/30 12:17:36;;;;;;;;;;;;;;;24.72;52.13;95207.31;10498686;28;2359;-59
2022/06/30 12:22:46;;;;;;;;;;;;;;;24.72;52.04;95199.38;10492624;28;1855;-62
2022/06/30 12:27:49;;;;;;;;;;;;;;;24.77;51.90;95195.81;10499922;28;2187;-60
2022/06/30 12:32:56;;;;;;;;;;;;;;;24.76;52.20;95188.94;10498155;28;1942;-60
2022/06/30 12:37:57;;;;;;;;;;;;;;;24.83;51.73;95192.66;10495255;28;1909;-62
2022/06/30 12:42:57;;;;;;;;;;;;;;;24.77;51.92;95193.16;10496429;28;2184;-59
2022/06/30 12:47:59;;;;;;;;;;;;;;;24.76;52.11;95187.09;10499147;28;2010;-59
2022/06/30 12:53:18;;;;;;;;;;;;;;;24.76;52.37;95181.00;10503879;28;2102;-58
2022/06/30 12:58:18;;;;;;;;;;;;;;;24.78;52.28;95179.59;10500925;28;1851;-59
2022/06/30 13:03:18;;;;;;;;;;;;;;;24.83;51.76;95191.91;10498151;28;1865;-59
2022/06/30 13:08:18;;;;;;;;;;;;;;;24.77;52.24;95190.53;10497804;28;1926;-59
2022/06/30 13:13:19;;;;;;;;;;;;;;;24.81;52.04;95191.44;10501844;28;1973;-59
2022/06/30 13:18:19;;;;;;;;;;;;;;;24.77;52.72;95187.88;10489494;28;2329;-62
2022/06/30 13:23:19;;;;;;;;;;;;;;;24.83;52.40;95181.31;10475406;28;2054;-59
2022/06/30 13:28:19;;;;;;;;;;;;;;;24.82;52.63;95166.47;10493493;28;2010;-60
2022/06/30 13:33:21;;;;;;;;;;;;;;;24.84;52.67;95166.94;10492223;28;2040;-63
2022/06/30 13:38:21;;;;;;;;;;;;;;;24.83;52.52;95157.44;10494244;28;1916;-57
2022/06/30 13:43:22;;;;;;;;;;;;;;;24.83;52.71;95152.16;10502159;28;1909;-59
2022/06/30 13:48:22;;;;;;;;;;;;;;;24.85;52.59;95160.56;10497838;28;1929;-59
2022/06/30 13:53:22;;;;;;;;;;;;;;;24.81;52.65;95151.69;10496788;28;1957;-60
2022/06/30 13:58:24;;;;;;;;;;;;;;;24.85;52.47;95139.34;10502882;28;1877;-59
2022/06/30 14:03:24;;;;;;;;;;;;;;;24.88;52.50;95151.97;10495314;28;1828;-61
2022/06/30 14:08:24;;;;;;;;;;;;;;;24.85;52.87;95123.47;10489974;28;1808;-60
2022/06/30 14:13:25;;;;;;;;;;;;;;;24.88;52.76;95131.53;10489189;28;2167;-60
2022/06/30 14:18:25;;;;;;;;;;;;;;;24.94;52.47;95132.16;10496667;28;2449;-59
2022/06/30 14:23:25;;;;;;;;;;;;;;;24.88;52.89;95130.75;10502388;28;1824;-60
2022/06/30 14:28:26;;;;;;;;;;;;;;;24.92;52.74;95143.06;10499421;28;1693;-61
2022/06/30 14:33:26;;;;;;;;;;;;;;;24.91;53.12;95130.16;10507462;28;2128;-61
2022/06/30 14:38:26;;;;;;;;;;;;;;;24.93;52.81;95120.00;10508233;28;1827;-61
2022/06/30 14:43:26;;;;;;;;;;;;;;;24.98;52.72;95125.13;10501022;28;2154;-62
2022/06/30 14:48:27;;;;;;;;;;;;;;;24.92;52.99;95116.56;10504107;28;1827;-61
2022/06/30 14:53:27;;;;;;;;;;;;;;;24.99;52.71;95121.38;10500159;28;1905;-60
2022/06/30 14:58:28;;;;;;;;;;;;;;;24.97;53.06;95112.97;10487442;28;1918;-61
2022/06/30 15:03:37;;;;;;;;;;;;;;;24.93;53.01;95117.34;10504977;28;1933;-60
2022/06/30 15:08:39;;;;;;;;;;;;;;;24.92;53.30;95124.53;10504254;28;1823;-60
2022/06/30 15:13:40;;;;;;;;;;;;;;;24.95;53.19;95121.25;10500616;28;1891;-61
2022/06/30 15:18:40;;;;;;;;;;;;;;;24.95;53.21;95125.78;10505965;28;1855;-58
2022/06/30 15:29:01;;;;;;;;;;;;;;;24.95;53.35;95133.72;10514642;28;1851;-57
2022/06/30 15:34:01;;;;;;;;;;;;;;;24.96;53.14;95141.34;10503175;28;1962;-62
2022/06/30 15:39:02;;;;;;;;;;;;;;;24.96;53.39;95137.91;10503792;28;1836;-63
2022/06/30 15:44:03;;;;;;;;;;;;;;;24.98;53.25;95133.06;10504578;28;2546;-58
2022/06/30 15:49:04;;;;;;;;;;;;;;;25.03;52.93;95127.63;10499048;28;1976;-57
2022/06/30 15:54:04;;;;;;;;;;;;;;;25.01;53.19;95135.09;10488016;28;1919;-62
2022/06/30 15:59:05;;;;;;;;;;;;;;;25.01;53.33;95141.19;10501761;28;1827;-57
2022/06/30 16:04:06;;;;;;;;;;;;;;;24.98;53.61;95151.63;10499171;28;1867;-60
2022/06/30 16:09:06;;;;;;;;;;;;;;;24.99;52.98;95158.50;10506557;28;1689;-57
2022/06/30 16:14:07;;;;;;;;;;;;;;;24.95;52.35;95158.38;10496279;28;2024;-60
2022/06/30 16:19:08;;;;;;;;;;;;;;;24.97;52.10;95147.44;10503121;28;1899;-57
2022/06/30 16:24:08;;;;;;;;;;;;;;;24.89;52.01;95150.88;10503501;28;1808;-57
2022/06/30 16:29:09;;;;;;;;;;;;;;;24.90;52.00;95163.03;10503151;28;1820;-58
2022/06/30 16:34:09;;;;;;;;;;;;;;;24.88;52.37;95175.84;10505913;28;1915;-58
2022/06/30 16:39:10;;;;;;;;;;;;;;;24.90;52.08;95178.94;10505944;28;1847;-59
2022/06/30 16:44:10;;;;;;;;;;;;;;;24.89;52.36;95209.22;10504512;28;1768;-58
2022/06/30 16:49:10;;;;;;;;;;;;;;;24.91;52.24;95209.69;10507043;28;1788;-60
2022/06/30 16:54:11;;;;;;;;;;;;;;;24.90;52.19;95202.81;10505778;28;1977;-58
2022/06/30 16:59:11;;;;;;;;;;;;;;;24.91;52.21;95194.56;10500578;28;1749;-59
2022/06/30 17:04:12;;;;;;;;;;;;;;;24.92;52.26;95182.84;10506118;28;1808;-58
2022/06/30 17:09:13;;;;;;;;;;;;;;;24.90;52.45;95174.44;10505854;28;1843;-60
2022/06/30 17:14:13;;;;;;;;;;;;;;;24.90;52.41;95168.34;10502035;28;1910;-58
2022/06/30 17:19:14;;;;;;;;;;;;;;;24.89;52.55;95174.75;10504175;28;1728;-60
2022/06/30 17:24:15;;;;;;;;;;;;;;;24.89;52.78;95182.72;10499593;28;1815;-57
2022/06/30 17:29:15;;;;;;;;;;;;;;;24.90;52.66;95197.50;10501763;28;1740;-58
2022/06/30 17:34:15;;;;;;;;;;;;;;;24.89;52.72;95194.06;10499538;28;1906;-60
2022/06/30 17:39:16;;;;;;;;;;;;;;;24.90;52.67;95208.09;10501915;28;1851;-60
2022/06/30 17:44:16;;;;;;;;;;;;;;;24.92;52.81;95216.53;10502213;28;1880;-59
2022/06/30 17:49:17;;;;;;;;;;;;;;;24.91;53.17;95217.63;10499320;28;1870;-58
2022/06/30 17:54:20;;;;;;;;;;;;;;;24.97;52.89;95203.13;10503524;28;2116;-60
2022/06/30 17:59:20;;;;;;;;;;;;;;;24.99;53.06;95208.88;10502831;28;1916;-57
2022/06/30 18:04:20;;;;;;;;;;;;;;;24.93;53.13;95218.09;10506195;28;2015;-60
2022/06/30 18:14:40;;;;;;;;;;;;;;;24.96;53.00;95197.03;10513491;28;2073;-58
2022/06/30 18:19:41;;;;;;;;;;;;;;;24.96;53.07;95185.63;10509992;28;1909;-60
2022/06/30 18:24:41;;;;;;;;;;;;;;;24.98;52.84;95194.84;10512909;28;2114;-61
2022/06/30 18:29:41;;;;;;;;;;;;;;;24.99;52.99;95203.59;10514397;28;1973;-60
2022/06/30 18:34:42;;;;;;;;;;;;;;;24.99;52.81;95227.44;10511515;28;2029;-60
2022/06/30 18:39:42;;;;;;;;;;;;;;;24.99;52.96;95227.44;10516811;28;1958;-60
2022/06/30 18:44:43;;;;;;;;;;;;;;;24.99;52.77;95225.59;10513329;28;1965;-59
2022/06/30 18:49:43;;;;;;;;;;;;;;;25.01;52.55;95241.97;10511483;28;1862;-57
2022/06/30 18:54:43;;;;;;;;;;;;;;;25.04;52.48;95245.84;10514803;28;1960;-59
2022/06/30 18:59:45;;;;;;;;;;;;;;;25.04;52.35;95230.72;10509917;28;1925;-59
2022/06/30 19:04:47;;;;;;;;;;;;;;;25.03;52.42;95249.59;10514623;28;1975;-59
2022/06/30 19:09:47;;;;;;;;;;;;;;;25.03;52.46;95255.69;10507913;28;1924;-60
2022/06/30 19:14:47;;;;;;;;;;;;;;;24.79;54.74;95262.56;10501055;28;1979;-57
2022/06/30 19:19:48;;;;;;;;;;;;;;;24.47;55.85;95265.59;10504913;28;1924;-59
2022/06/30 19:24:48;;;;;;;;;;;;;;;24.25;56.71;95275.22;10493362;28;1942;-58
2022/06/30 19:29:48;;;;;;;;;;;;;;;24.11;57.15;95287.03;10498215;28;1920;-59
2022/06/30 19:34:49;;;;;;;;;;;;;;;23.96;57.31;95292.69;10498004;28;2008;-58
2022/06/30 19:39:50;;;;;;;;;;;;;;;23.88;56.63;95304.81;10499954;28;1921;-60
2022/06/30 19:44:50;;;;;;;;;;;;;;;23.69;56.40;95309.53;10499472;28;1889;-58
2022/06/30 19:49:50;;;;;;;;;;;;;;;23.68;56.56;95321.19;10498643;28;1933;-60
2022/06/30 19:54:51;;;;;;;;;;;;;;;23.64;56.57;95328.19;10499959;28;2107;-59
2022/06/30 19:59:52;;;;;;;;;;;;;;;23.63;56.58;95347.00;10491652;28;1921;-56
2022/06/30 20:04:58;;;;;;;;;;;;;;;23.63;56.62;95333.78;10504334;28;1995;-58
2022/06/30 20:15:18;;;;;;;;;;;;;;;23.50;54.82;95330.13;10498737;28;1956;-58
2022/06/30 20:20:22;;;;;;;;;;;;;;;23.43;53.37;95319.19;10497408;28;2036;-59
2022/06/30 20:25:25;;;;;;;;;;;;;;;23.30;53.12;95306.78;10494564;28;1960;-54
2022/06/30 20:30:30;;;;;;;;;;;;;;;23.25;53.36;95299.75;10493556;28;1911;-57
2022/06/30 20:35:30;;;;;;;;;;;;;;;23.17;53.84;95283.81;10499836;28;1910;-58
2022/06/30 20:40:31;;;;;;;;;;;;;;;23.10;54.20;95267.63;10499043;28;1795;-58
2022/06/30 20:45:31;;;;;;;;;;;;;;;23.18;53.64;95274.81;10498033;28;1815;-59
2022/06/30 20:55:51;;;;;;;;;;;;;;;22.97;53.79;95279.81;10499166;28;1984;-57
2022/06/30 21:00:51;;;;;;;;;;;;;;;23.13;53.61;95273.06;10506934;28;1946;-55
2022/06/30 21:05:52;;;;;;;;;;;;;;;23.25;53.37;95286.53;10510032;28;1808;-58
2022/06/30 21:10:53;;;;;;;;;;;;;;;23.11;53.39;95277.88;10507495;28;1795;-57
2022/06/30 21:15:53;;;;;;;;;;;;;;;23.07;53.45;95257.63;10502797;28;1976;-58
2022/06/30 21:20:54;;;;;;;;;;;;;;;23.00;53.68;95250.09;10508737;28;1796;-58
2022/06/30 21:25:54;;;;;;;;;;;;;;;22.91;53.62;95254.56;10503362;28;1783;-59
2022/06/30 21:30:55;;;;;;;;;;;;;;;22.86;53.63;95243.31;10512506;28;1863;-59
2022/06/30 21:35:55;;;;;;;;;;;;;;;22.95;53.51;95230.97;10504942;28;1973;-59
2022/06/30 21:40:55;;;;;;;;;;;;;;;22.85;53.76;95231.97;10507833;28;1848;-57
2022/06/30 21:45:56;;;;;;;;;;;;;;;22.63;54.24;95227.44;10501388;28;1890;-59
2022/06/30 21:50:57;;;;;;;;;;;;;;;22.70;54.34;95231.53;10504961;28;1736;-58
2022/06/30 21:55:57;;;;;;;;;;;;;;;22.93;53.97;95235.75;10505724;28;1882;-58
2022/06/30 22:00:57;;;;;;;;;;;;;;;23.04;53.63;95252.94;10503932;28;1848;-58
2022/06/30 22:05:57;;;;;;;;;;;;;;;22.89;53.83;95262.03;10501340;28;1865;-56
2022/06/30 22:10:59;;;;;;;;;;;;;;;22.91;53.71;95253.78;10504096;28;1795;-58
2022/06/30 22:15:59;;;;;;;;;;;;;;;22.80;54.05;95273.59;10504893;28;1977;-58
2022/06/30 22:21:00;;;;;;;;;;;;;;;22.79;54.40;95272.03;10505162;28;1861;-59
2022/06/30 22:26:00;;;;;;;;;;;;;;;22.79;54.01;95286.03;10503638;28;1879;-59
2022/06/30 22:31:00;;;;;;;;;;;;;;;22.83;54.38;95299.44;10506570;28;1816;-59
2022/06/30 22:36:00;;;;;;;;;;;;;;;22.88;54.01;95307.22;10501913;28;1902;-58
2022/06/30 22:41:02;;;;;;;;;;;;;;;22.93;53.85;95315.06;10505542;28;1856;-58
2022/06/30 22:46:02;;;;;;;;;;;;;;;22.83;54.03;95336.41;10511750;28;1824;-58
2022/06/30 22:51:03;;;;;;;;;;;;;;;22.77;54.09;95348.19;10508023;28;1792;-56
2022/06/30 22:56:03;;;;;;;;;;;;;;;22.77;53.99;95343.69;10515101;28;1898;-59
2022/06/30 23:01:04;;;;;;;;;;;;;;;22.75;53.90;95334.47;10508322;28;1855;-56
2022/06/30 23:06:05;;;;;;;;;;;;;;;22.75;54.22;95342.41;10517241;28;1870;-57
2022/06/30 23:11:05;;;;;;;;;;;;;;;22.70;54.19;95359.16;10506421;28;1732;-59
2022/06/30 23:16:05;;;;;;;;;;;;;;;22.51;54.28;95385.66;10507889;28;1959;-59
2022/06/30 23:21:06;;;;;;;;;;;;;;;22.30;54.13;95432.00;10509993;28;1854;-57
2022/06/30 23:26:06;;;;;;;;;;;;;;;22.17;55.02;95435.41;10507531;28;1847;-59
2022/06/30 23:31:06;;;;;;;;;;;;;;;22.14;55.37;95435.97;10509994;28;1851;-58
2022/06/30 23:36:07;;;;;;;;;;;;;;;21.97;55.46;95450.81;10508451;28;1977;-56
2022/06/30 23:41:07;;;;;;;;;;;;;;;21.85;55.59;95457.31;10506779;28;1851;-58
2022/06/30 23:46:07;;;;;;;;;;;;;;;21.82;55.90;95471.06;10505632;28;1819;-58
2022/06/30 23:51:08;;;;;;;;;;;;;;;21.81;56.06;95481.88;10509345;28;1826;-58
2022/06/30 23:56:08;;;;;;;;;;;;;;;21.70;56.84;95494.44;10504351;28;1917;-56
